Time;durP1;ratioP1;P1;durP2;ratioP2;P2;SDS_P1;SDS_P2;PMS_P1;PMS_P2;Temp;Humidity;BMP_temperature;BMP_pressure;BME280_temperature;BME280_humidity;BME280_pressure;Samples;Min_cycle;Max_cycle;Signal;HPM_P1;HPM_P2
2023/06/06 00:01:54;;;;;;;;;;;21.70;92.80;;;;;;5095273;28;20408;-40
2023/06/06 00:04:19;;;;;;;;;;;21.70;92.80;;;;;;5095265;28;19912;-39
2023/06/06 00:06:45;;;;;;;;;;;21.70;92.80;;;;;;5095420;28;20374;-39
2023/06/06 00:09:11;;;;;;;;;;;21.70;92.70;;;;;;5076613;28;19919;-40
2023/06/06 00:11:39;;;;;;;;;;;21.60;92.70;;;;;;5095347;28;19909;-39
2023/06/06 00:14:07;;;;;;;;;;;21.60;92.60;;;;;;5095001;28;19909;-40
2023/06/06 00:16:34;;;;;;;;;;;21.60;92.60;;;;;;5095027;28;19908;-40
2023/06/06 00:19:03;;;;;;;;;;;21.60;92.60;;;;;;5094370;28;20002;-39
2023/06/06 00:21:32;;;;;;;;;;;21.60;92.60;;;;;;5094155;28;19912;-40
2023/06/06 00:23:59;;;;;;;;;;;21.60;92.60;;;;;;5114245;28;19912;-40
2023/06/06 00:26:26;;;;;;;;;;;21.60;92.80;;;;;;5115136;28;19912;-40
2023/06/06 00:28:51;;;;;;;;;;;21.70;92.90;;;;;;5108874;28;19927;-40
2023/06/06 00:31:16;;;;;;;;;;;21.60;92.80;;;;;;5095072;28;19912;-40
2023/06/06 00:33:42;;;;;;;;;;;21.60;92.90;;;;;;5094699;28;19915;-40
2023/06/06 00:36:07;;;;;;;;;;;21.60;92.90;;;;;;5094965;28;19908;-40
2023/06/06 00:38:33;;;;;;;;;;;21.70;92.90;;;;;;5092275;28;19955;-40
2023/06/06 00:40:58;;;;;;;;;;;21.60;92.80;;;;;;5093801;28;19912;-39
2023/06/06 00:43:24;;;;;;;;;;;21.60;92.90;;;;;;5092804;28;19919;-40
2023/06/06 00:45:50;;;;;;;;;;;21.60;92.80;;;;;;5094552;28;20007;-41
2023/06/06 00:48:16;;;;;;;;;;;21.60;92.90;;;;;;5093864;28;19921;-40
2023/06/06 00:50:42;;;;;;;;;;;21.60;92.90;;;;;;5094698;28;19911;-39
2023/06/06 00:53:09;;;;;;;;;;;21.60;92.90;;;;;;5094375;28;20427;-39
2023/06/06 00:55:35;;;;;;;;;;;21.60;92.90;;;;;;5095016;28;19908;-40
2023/06/06 00:58:01;;;;;;;;;;;21.60;92.90;;;;;;5094161;28;19934;-39
2023/06/06 01:00:27;;;;;;;;;;;21.60;93.10;;;;;;5094556;28;20335;-40
2023/06/06 01:02:53;;;;;;;;;;;21.60;92.90;;;;;;5094585;28;19908;-41
2023/06/06 01:05:21;;;;;;;;;;;21.60;92.90;;;;;;5094250;28;19930;-40
2023/06/06 01:07:47;;;;;;;;;;;21.60;92.90;;;;;;5093432;28;19999;-40
2023/06/06 01:10:13;;;;;;;;;;;21.60;92.90;;;;;;5094434;28;20533;-40
2023/06/06 01:12:47;;;;;;;;;;;21.60;92.90;;;;;;5094051;28;19915;-40
2023/06/06 01:15:27;;;;;;;;;;;21.60;92.90;;;;;;5094738;28;19909;-39
2023/06/06 01:17:53;;;;;;;;;;;21.60;92.90;;;;;;5093185;28;19908;-40
2023/06/06 01:20:21;;;;;;;;;;;21.60;92.90;;;;;;5093421;28;20015;-40
2023/06/06 01:22:47;;;;;;;;;;;21.60;92.90;;;;;;5103060;28;20328;-40
2023/06/06 01:25:12;;;;;;;;;;;21.60;92.90;;;;;;5114405;28;19912;-40
2023/06/06 01:27:39;;;;;;;;;;;21.60;92.90;;;;;;5116907;28;19916;-40
2023/06/06 01:30:05;;;;;;;;;;;21.60;92.90;;;;;;5099883;28;19965;-40
2023/06/06 01:32:32;;;;;;;;;;;21.60;92.90;;;;;;5096632;28;19912;-40
2023/06/06 01:35:03;;;;;;;;;;;21.60;92.90;;;;;;5097178;28;19923;-39
2023/06/06 01:37:48;;;;;;;;;;;21.60;92.90;;;;;;5098358;28;19908;-39
2023/06/06 01:40:17;;;;;;;;;;;21.60;92.90;;;;;;5080187;28;20354;-39
2023/06/06 01:42:46;;;;;;;;;;;21.60;93.00;;;;;;5098006;28;19999;-39
2023/06/06 01:45:12;;;;;;;;;;;21.60;93.00;;;;;;5097388;28;20291;-39
2023/06/06 01:47:38;;;;;;;;;;;21.60;93.00;;;;;;5098129;28;19920;-40
2023/06/06 01:50:07;;;;;;;;;;;21.60;93.00;;;;;;5097778;28;19916;-39
2023/06/06 01:52:33;;;;;;;;;;;21.60;93.00;;;;;;5097989;28;19908;-40
2023/06/06 01:55:01;;;;;;;;;;;21.60;93.00;;;;;;5098333;28;19915;-40
2023/06/06 01:57:26;;;;;;;;;;;21.60;93.00;;;;;;5097376;28;19912;-40
2023/06/06 01:59:52;;;;;;;;;;;21.60;93.00;;;;;;5097927;28;19915;-40
2023/06/06 02:02:18;;;;;;;;;;;21.60;93.00;;;;;;5097067;28;20032;-40
2023/06/06 02:04:43;;;;;;;;;;;21.60;93.00;;;;;;5097522;28;20267;-40
2023/06/06 02:07:11;;;;;;;;;;;21.60;93.00;;;;;;5097149;28;19921;-40
2023/06/06 02:09:36;;;;;;;;;;;21.60;93.00;;;;;;5097413;28;19909;-40
2023/06/06 02:12:02;;;;;;;;;;;21.60;93.00;;;;;;5097750;28;20393;-40
2023/06/06 02:14:28;;;;;;;;;;;21.60;93.00;;;;;;5097340;28;20003;-40
2023/06/06 02:16:54;;;;;;;;;;;21.60;93.00;;;;;;5096554;28;19918;-40
2023/06/06 02:19:19;;;;;;;;;;;21.60;93.00;;;;;;5097581;28;19915;-40
2023/06/06 02:21:47;;;;;;;;;;;21.60;93.00;;;;;;5097952;28;20266;-40
2023/06/06 02:24:12;;;;;;;;;;;21.60;93.00;;;;;;5118190;28;19908;-39
2023/06/06 02:26:41;;;;;;;;;;;21.60;93.00;;;;;;5113720;28;20370;-39
2023/06/06 02:29:07;;;;;;;;;;;21.60;93.00;;;;;;5095929;28;19920;-41
2023/06/06 02:31:32;;;;;;;;;;;21.60;93.00;;;;;;5096557;28;19952;-40
2023/06/06 02:33:58;;;;;;;;;;;21.60;93.00;;;;;;5097357;28;20346;-40
2023/06/06 02:36:23;;;;;;;;;;;21.60;93.00;;;;;;5097324;28;19961;-40
2023/06/06 02:38:49;;;;;;;;;;;21.60;93.00;;;;;;5097101;28;19908;-40
2023/06/06 02:41:15;;;;;;;;;;;21.60;93.20;;;;;;5096556;28;19916;-40
2023/06/06 02:43:42;;;;;;;;;;;21.60;92.90;;;;;;5096800;28;19913;-40
2023/06/06 02:46:07;;;;;;;;;;;21.60;92.90;;;;;;5096842;28;19920;-40
2023/06/06 02:48:33;;;;;;;;;;;21.60;93.00;;;;;;5097009;28;19916;-40
2023/06/06 02:50:59;;;;;;;;;;;21.60;93.00;;;;;;5095881;28;19999;-40
2023/06/06 02:53:24;;;;;;;;;;;21.60;93.00;;;;;;5096954;28;19908;-40
2023/06/06 02:55:50;;;;;;;;;;;21.60;93.00;;;;;;5096573;28;20309;-40
2023/06/06 02:58:28;;;;;;;;;;;21.60;93.00;;;;;;5096842;28;19915;-40
2023/06/06 03:00:57;;;;;;;;;;;21.60;93.00;;;;;;5096547;28;19965;-40
2023/06/06 03:03:23;;;;;;;;;;;21.60;93.00;;;;;;5094075;28;19913;-40
2023/06/06 03:05:51;;;;;;;;;;;21.60;93.00;;;;;;5108826;28;19964;-40
2023/06/06 03:08:20;;;;;;;;;;;21.60;93.00;;;;;;5097128;28;19920;-40
2023/06/06 03:10:46;;;;;;;;;;;21.60;93.00;;;;;;5096607;28;19908;-40
2023/06/06 03:13:12;;;;;;;;;;;21.60;93.00;;;;;;5096801;28;19916;-40
2023/06/06 03:15:40;;;;;;;;;;;21.60;93.30;;;;;;5095286;28;20003;-40
2023/06/06 03:18:07;;;;;;;;;;;21.60;93.00;;;;;;5096433;28;19931;-40
2023/06/06 03:20:32;;;;;;;;;;;21.60;93.10;;;;;;5096435;28;19909;-40
2023/06/06 03:22:57;;;;;;;;;;;21.60;93.10;;;;;;5106987;28;19912;-40
2023/06/06 03:25:26;;;;;;;;;;;21.60;93.10;;;;;;5100983;28;19912;-39
2023/06/06 03:27:51;;;;;;;;;;;21.60;93.00;;;;;;5096053;28;19923;-40
2023/06/06 03:30:17;;;;;;;;;;;21.60;93.10;;;;;;5095456;28;19916;-40
2023/06/06 03:32:42;;;;;;;;;;;21.60;93.10;;;;;;5096120;28;19908;-40
2023/06/06 03:35:08;;;;;;;;;;;21.60;93.10;;;;;;5094709;28;20378;-40
2023/06/06 03:37:33;;;;;;;;;;;21.60;93.00;;;;;;5106762;28;20010;-40
2023/06/06 03:39:59;;;;;;;;;;;21.60;93.10;;;;;;5105913;28;20304;-40
2023/06/06 03:42:24;;;;;;;;;;;21.60;93.00;;;;;;5114316;28;19915;-40
2023/06/06 03:44:50;;;;;;;;;;;21.60;93.10;;;;;;5109623;28;20274;-40
2023/06/06 03:47:15;;;;;;;;;;;21.60;93.00;;;;;;5095778;28;19926;-40
2023/06/06 03:49:41;;;;;;;;;;;21.60;93.00;;;;;;5095123;28;19915;-40
2023/06/06 03:52:07;;;;;;;;;;;21.60;93.00;;;;;;5077543;28;20073;-40
2023/06/06 03:54:36;;;;;;;;;;;21.60;93.00;;;;;;5095377;28;19943;-40
2023/06/06 03:57:02;;;;;;;;;;;21.60;93.00;;;;;;5095003;28;20317;-40
2023/06/06 03:59:28;;;;;;;;;;;21.60;93.00;;;;;;5095874;28;19916;-40
2023/06/06 04:01:53;;;;;;;;;;;21.60;93.00;;;;;;5077847;28;19915;-40
2023/06/06 04:04:19;;;;;;;;;;;21.60;93.00;;;;;;5095226;28;19908;-40
2023/06/06 04:06:44;;;;;;;;;;;21.60;93.00;;;;;;5092662;28;19919;-41
2023/06/06 04:09:10;;;;;;;;;;;21.60;93.00;;;;;;5077327;28;20002;-40
2023/06/06 04:11:36;;;;;;;;;;;21.60;93.00;;;;;;5095004;28;19908;-40
2023/06/06 04:14:02;;;;;;;;;;;21.60;93.00;;;;;;5095496;28;19912;-40
2023/06/06 04:16:27;;;;;;;;;;;21.60;93.00;;;;;;5094232;28;20345;-40
2023/06/06 04:18:53;;;;;;;;;;;21.60;93.00;;;;;;5095188;28;20322;-40
2023/06/06 04:21:19;;;;;;;;;;;21.60;93.00;;;;;;5094829;28;19908;-40
2023/06/06 04:23:45;;;;;;;;;;;21.60;92.90;;;;;;5109193;28;19908;-40
2023/06/06 04:26:21;;;;;;;;;;;21.60;92.90;;;;;;5094998;28;20339;-39
2023/06/06 04:28:48;;;;;;;;;;;21.60;92.90;;;;;;5095039;28;19917;-40
2023/06/06 04:31:14;;;;;;;;;;;21.60;92.90;;;;;;5094970;28;19912;-40
2023/06/06 04:33:39;;;;;;;;;;;21.60;92.90;;;;;;5098225;28;19915;-40
2023/06/06 04:36:05;;;;;;;;;;;21.60;92.90;;;;;;5095044;28;19934;-40
2023/06/06 04:38:31;;;;;;;;;;;21.60;92.90;;;;;;5094762;28;20267;-40
2023/06/06 04:41:01;;;;;;;;;;;21.60;92.90;;;;;;5094764;28;19916;-39
2023/06/06 04:43:27;;;;;;;;;;;21.50;92.90;;;;;;5094443;28;20270;-39
2023/06/06 04:45:53;;;;;;;;;;;21.60;92.90;;;;;;5093662;28;19916;-40
2023/06/06 04:48:19;;;;;;;;;;;21.60;92.90;;;;;;5079914;28;20381;-39
2023/06/06 04:50:46;;;;;;;;;;;21.60;92.90;;;;;;5104074;28;20382;-39
2023/06/06 04:53:12;;;;;;;;;;;21.60;92.90;;;;;;5096731;28;20308;-39
2023/06/06 04:55:39;;;;;;;;;;;21.60;92.90;;;;;;5101743;28;20382;-39
2023/06/06 04:58:04;;;;;;;;;;;21.50;92.90;;;;;;5094521;28;19953;-39
2023/06/06 05:00:30;;;;;;;;;;;21.60;92.90;;;;;;5101195;28;19912;-40
2023/06/06 05:02:56;;;;;;;;;;;21.60;92.90;;;;;;5112485;28;19912;-39
2023/06/06 05:05:22;;;;;;;;;;;21.60;92.90;;;;;;5093025;28;19943;-39
2023/06/06 05:07:47;;;;;;;;;;;21.60;92.90;;;;;;5094027;28;19920;-39
2023/06/06 05:10:15;;;;;;;;;;;21.60;92.90;;;;;;5100543;28;19916;-39
2023/06/06 05:12:40;;;;;;;;;;;21.60;92.90;;;;;;5099104;28;19916;-39
2023/06/06 05:15:06;;;;;;;;;;;21.60;92.90;;;;;;5091898;28;19919;-40
2023/06/06 05:17:31;;;;;;;;;;;21.60;92.90;;;;;;5097590;28;20408;-40
2023/06/06 05:19:57;;;;;;;;;;;21.60;92.90;;;;;;5074744;28;19916;-39
2023/06/06 05:22:22;;;;;;;;;;;21.70;92.90;;;;;;5092504;28;19964;-43
2023/06/06 05:24:48;;;;;;;;;;;21.60;92.80;;;;;;5093848;28;19913;-39
2023/06/06 05:27:13;;;;;;;;;;;21.60;92.90;;;;;;5111777;28;19942;-39
2023/06/06 05:29:39;;;;;;;;;;;21.60;92.80;;;;;;5112582;28;19912;-39
2023/06/06 05:32:05;;;;;;;;;;;21.60;92.70;;;;;;5113089;28;19908;-40
2023/06/06 05:34:30;;;;;;;;;;;21.60;92.70;;;;;;5094299;28;19913;-40
2023/06/06 05:36:56;;;;;;;;;;;21.60;92.80;;;;;;5093105;28;19912;-39
2023/06/06 05:39:24;;;;;;;;;;;21.60;92.80;;;;;;5093992;28;19912;-39
2023/06/06 05:41:54;;;;;;;;;;;21.60;92.80;;;;;;5080745;28;20010;-39
2023/06/06 05:44:20;;;;;;;;;;;21.60;92.80;;;;;;5101005;28;19912;-39
2023/06/06 05:46:47;;;;;;;;;;;21.60;92.80;;;;;;5093224;28;19920;-39
2023/06/06 05:49:13;;;;;;;;;;;21.60;92.80;;;;;;5093758;28;19916;-39
2023/06/06 05:51:38;;;;;;;;;;;21.60;92.80;;;;;;5100711;28;20332;-39
2023/06/06 05:54:05;;;;;;;;;;;21.60;92.80;;;;;;5092497;28;19912;-40
2023/06/06 05:56:31;;;;;;;;;;;21.60;92.70;;;;;;5103455;28;19965;-39
2023/06/06 05:58:56;;;;;;;;;;;21.60;92.80;;;;;;5094125;28;20006;-39
2023/06/06 06:01:24;;;;;;;;;;;21.60;92.80;;;;;;5093665;28;19908;-39
2023/06/06 06:03:52;;;;;;;;;;;21.60;92.80;;;;;;5101194;28;19911;-40
2023/06/06 06:06:19;;;;;;;;;;;21.60;92.70;;;;;;5094254;28;20394;-39
2023/06/06 06:08:48;;;;;;;;;;;21.60;92.80;;;;;;5092782;28;19924;-39
2023/06/06 06:11:14;;;;;;;;;;;21.60;92.80;;;;;;5093446;28;20282;-39
2023/06/06 06:13:39;;;;;;;;;;;21.60;93.00;;;;;;5095680;28;19908;-39
2023/06/06 06:16:05;;;;;;;;;;;21.60;92.80;;;;;;5077780;28;20317;-40
2023/06/06 06:18:30;;;;;;;;;;;21.60;92.80;;;;;;5097328;28;19919;-41
2023/06/06 06:20:56;;;;;;;;;;;21.60;92.80;;;;;;5096922;28;19908;-40
2023/06/06 06:23:21;;;;;;;;;;;21.60;92.80;;;;;;5111386;28;19961;-40
2023/06/06 06:25:47;;;;;;;;;;;21.60;92.80;;;;;;5107585;28;19923;-39
2023/06/06 06:28:19;;;;;;;;;;;21.60;92.80;;;;;;5096471;28;19920;-40
2023/06/06 06:30:45;;;;;;;;;;;21.60;92.80;;;;;;5097124;28;19909;-39
2023/06/06 06:33:11;;;;;;;;;;;21.60;92.80;;;;;;5113378;28;19908;-40
2023/06/06 06:35:36;;;;;;;;;;;21.60;92.70;;;;;;5087718;28;19969;-45
2023/06/06 06:38:02;;;;;;;;;;;21.60;92.70;;;;;;5097740;28;19912;-41
2023/06/06 06:40:27;;;;;;;;;;;21.70;92.80;;;;;;5101337;28;20363;-45
2023/06/06 06:42:53;;;;;;;;;;;21.70;92.70;;;;;;5109063;28;19912;-42
2023/06/06 06:45:21;;;;;;;;;;;21.70;92.70;;;;;;5107849;28;19908;-40
2023/06/06 06:47:46;;;;;;;;;;;21.70;92.80;;;;;;5101290;28;19928;-40
2023/06/06 06:50:11;;;;;;;;;;;21.70;92.80;;;;;;5095082;28;19912;-40
2023/06/06 06:52:37;;;;;;;;;;;21.70;92.90;;;;;;5114117;28;20331;-40
2023/06/06 06:55:04;;;;;;;;;;;21.70;92.90;;;;;;5115823;28;20007;-40
2023/06/06 06:57:29;;;;;;;;;;;21.70;92.90;;;;;;5080538;28;19912;-41
2023/06/06 06:59:56;;;;;;;;;;;21.70;93.00;;;;;;5103375;28;19914;-41
2023/06/06 07:02:26;;;;;;;;;;;21.70;93.00;;;;;;5095327;28;20347;-41
2023/06/06 07:04:57;;;;;;;;;;;21.70;92.90;;;;;;5074507;28;19958;-40
2023/06/06 07:07:23;;;;;;;;;;;21.70;92.90;;;;;;5093489;28;19916;-41
2023/06/06 07:09:48;;;;;;;;;;;21.70;92.80;;;;;;5094447;28;20244;-41
2023/06/06 07:12:14;;;;;;;;;;;21.70;92.80;;;;;;5097715;28;19904;-41
2023/06/06 07:14:39;;;;;;;;;;;21.70;92.80;;;;;;5096203;28;19915;-40
2023/06/06 07:17:07;;;;;;;;;;;21.70;92.70;;;;;;5098229;28;19942;-42
2023/06/06 07:19:33;;;;;;;;;;;21.70;92.70;;;;;;5092530;28;20368;-41
2023/06/06 07:21:58;;;;;;;;;;;21.70;92.60;;;;;;5103937;28;19908;-40
2023/06/06 07:24:24;;;;;;;;;;;21.70;92.60;;;;;;5113169;28;19904;-40
2023/06/06 07:26:51;;;;;;;;;;;21.70;92.60;;;;;;5103846;28;19909;-43
2023/06/06 07:29:17;;;;;;;;;;;21.70;92.50;;;;;;5095912;28;20031;-40
2023/06/06 07:31:42;;;;;;;;;;;21.70;92.50;;;;;;5094319;28;20012;-47
2023/06/06 07:34:08;;;;;;;;;;;21.70;92.40;;;;;;5092779;28;19912;-41
2023/06/06 07:36:35;;;;;;;;;;;21.70;92.40;;;;;;5093380;28;20375;-41
2023/06/06 07:39:01;;;;;;;;;;;21.70;92.40;;;;;;5101079;28;19915;-41
2023/06/06 07:41:29;;;;;;;;;;;21.70;92.40;;;;;;5108897;28;19925;-40
2023/06/06 07:43:54;;;;;;;;;;;21.70;92.30;;;;;;5111780;28;20002;-40
2023/06/06 07:46:21;;;;;;;;;;;21.70;92.30;;;;;;5093931;28;20027;-40
2023/06/06 07:48:46;;;;;;;;;;;21.70;92.20;;;;;;5098237;28;19919;-40
2023/06/06 07:51:12;;;;;;;;;;;21.70;92.10;;;;;;5090658;28;19923;-43
2023/06/06 07:53:37;;;;;;;;;;;21.70;92.10;;;;;;5093041;28;19922;-47
2023/06/06 07:56:03;;;;;;;;;;;21.70;92.10;;;;;;5077303;28;19912;-46
2023/06/06 07:58:41;;;;;;;;;;;21.70;92.10;;;;;;5096092;28;19912;-46
2023/06/06 08:01:09;;;;;;;;;;;21.70;92.20;;;;;;5094439;28;20014;-43
2023/06/06 08:03:34;;;;;;;;;;;21.70;92.30;;;;;;5095769;28;19915;-42
2023/06/06 08:06:00;;;;;;;;;;;21.70;92.30;;;;;;5098329;28;20015;-45
2023/06/06 08:08:26;;;;;;;;;;;21.70;92.40;;;;;;5094568;28;19923;-44
2023/06/06 08:10:52;;;;;;;;;;;21.70;92.40;;;;;;5095239;28;19957;-49
2023/06/06 08:13:18;;;;;;;;;;;21.80;92.50;;;;;;5094776;28;19916;-45
2023/06/06 08:15:44;;;;;;;;;;;21.70;92.50;;;;;;5093982;28;19919;-48
2023/06/06 08:18:09;;;;;;;;;;;21.70;92.50;;;;;;5094727;28;19908;-49
2023/06/06 08:20:35;;;;;;;;;;;21.80;92.50;;;;;;5096914;28;20366;-43
2023/06/06 08:23:00;;;;;;;;;;;21.70;92.50;;;;;;5082776;28;19934;-43
2023/06/06 08:25:26;;;;;;;;;;;21.80;92.50;;;;;;5086553;28;20326;-45
2023/06/06 08:27:51;;;;;;;;;;;21.80;92.70;;;;;;5114717;28;19955;-43
2023/06/06 08:30:17;;;;;;;;;;;21.80;92.50;;;;;;5099546;28;19912;-44
2023/06/06 08:32:42;;;;;;;;;;;21.80;92.50;;;;;;5095089;28;19908;-48
2023/06/06 08:35:08;;;;;;;;;;;21.80;92.50;;;;;;5093851;28;19912;-46
2023/06/06 08:37:33;;;;;;;;;;;21.80;92.50;;;;;;5098875;28;19912;-43
2023/06/06 08:39:59;;;;;;;;;;;21.80;92.50;;;;;;5114478;28;20363;-44
2023/06/06 08:42:26;;;;;;;;;;;21.80;92.40;;;;;;5114525;28;19915;-46
2023/06/06 08:44:52;;;;;;;;;;;21.80;92.40;;;;;;5105204;28;19998;-53
2023/06/06 08:47:19;;;;;;;;;;;21.80;92.40;;;;;;5072573;28;19925;-49
2023/06/06 08:49:45;;;;;;;;;;;21.90;92.40;;;;;;5089005;28;19914;-42
2023/06/06 08:52:11;;;;;;;;;;;21.80;92.40;;;;;;5099272;28;20371;-44
2023/06/06 08:54:37;;;;;;;;;;;21.80;92.40;;;;;;5093178;28;20274;-44
2023/06/06 08:57:08;;;;;;;;;;;21.90;92.40;;;;;;5094282;28;19973;-43
2023/06/06 08:59:40;;;;;;;;;;;21.90;92.40;;;;;;5096123;28;19987;-46
2023/06/06 09:02:06;;;;;;;;;;;21.90;92.50;;;;;;5094127;28;19908;-45
2023/06/06 09:04:33;;;;;;;;;;;21.90;92.50;;;;;;5091110;28;19977;-44
2023/06/06 09:07:02;;;;;;;;;;;21.80;92.40;;;;;;5094328;28;19919;-45
2023/06/06 09:09:28;;;;;;;;;;;21.90;92.50;;;;;;5094129;28;20259;-45
2023/06/06 09:11:54;;;;;;;;;;;21.90;92.50;;;;;;5093962;28;19956;-44
2023/06/06 09:14:19;;;;;;;;;;;21.90;92.50;;;;;;5099658;28;19943;-44
2023/06/06 09:16:45;;;;;;;;;;;21.90;92.50;;;;;;5092820;28;20006;-44
2023/06/06 09:19:11;;;;;;;;;;;21.90;92.50;;;;;;5092930;28;19912;-43
2023/06/06 09:21:36;;;;;;;;;;;21.90;92.50;;;;;;5102937;28;19957;-42
2023/06/06 09:24:03;;;;;;;;;;;21.90;92.40;;;;;;5099091;28;19912;-44
2023/06/06 09:26:28;;;;;;;;;;;21.90;92.40;;;;;;5092110;28;19995;-45
2023/06/06 09:28:55;;;;;;;;;;;21.90;92.40;;;;;;5074725;28;20007;-43
2023/06/06 09:31:29;;;;;;;;;;;21.90;92.40;;;;;;5092752;28;19919;-48
2023/06/06 09:33:57;;;;;;;;;;;21.90;92.40;;;;;;5094333;28;19912;-43
2023/06/06 09:36:24;;;;;;;;;;;21.90;92.40;;;;;;5092137;28;20286;-49
2023/06/06 09:38:50;;;;;;;;;;;21.90;92.40;;;;;;5093939;28;19909;-43
2023/06/06 09:41:16;;;;;;;;;;;22.00;92.40;;;;;;5093820;28;20306;-48
2023/06/06 09:43:41;;;;;;;;;;;22.00;92.40;;;;;;5092516;28;20049;-41
2023/06/06 09:46:06;;;;;;;;;;;22.00;92.30;;;;;;5091321;28;19920;-41
2023/06/06 09:48:32;;;;;;;;;;;22.00;92.30;;;;;;5094286;28;19920;-41
2023/06/06 09:50:57;;;;;;;;;;;22.00;92.30;;;;;;5097532;28;20306;-42
2023/06/06 09:53:24;;;;;;;;;;;22.00;92.30;;;;;;5095385;28;19920;-41
2023/06/06 09:55:50;;;;;;;;;;;22.00;92.30;;;;;;5111198;28;19919;-48
2023/06/06 09:58:16;;;;;;;;;;;22.10;92.40;;;;;;5118225;28;19914;-43
2023/06/06 10:00:45;;;;;;;;;;;22.00;92.30;;;;;;5094641;28;19994;-48
2023/06/06 10:03:18;;;;;;;;;;;22.00;92.40;;;;;;5095271;28;19912;-44
2023/06/06 10:05:46;;;;;;;;;;;22.10;92.40;;;;;;5095337;28;20002;-45
2023/06/06 10:08:12;;;;;;;;;;;22.10;92.40;;;;;;5096468;28;19924;-45
2023/06/06 10:10:38;;;;;;;;;;;22.10;92.40;;;;;;5079369;28;19913;-45
2023/06/06 10:13:04;;;;;;;;;;;22.00;92.40;;;;;;5096174;28;19963;-45
2023/06/06 10:15:30;;;;;;;;;;;22.10;92.40;;;;;;5096467;28;19966;-44
2023/06/06 10:17:56;;;;;;;;;;;22.10;92.40;;;;;;5096360;28;19919;-44
2023/06/06 10:20:22;;;;;;;;;;;22.10;92.40;;;;;;5079205;28;19909;-43
2023/06/06 10:22:47;;;;;;;;;;;22.10;92.40;;;;;;5096703;28;19916;-46
2023/06/06 10:25:14;;;;;;;;;;;22.10;92.40;;;;;;5094905;28;19912;-44
2023/06/06 10:27:59;;;;;;;;;;;22.10;92.40;;;;;;5090677;28;19920;-45
2023/06/06 10:30:32;;;;;;;;;;;22.10;92.40;;;;;;5067870;28;19969;-51
2023/06/06 10:33:06;;;;;;;;;;;22.10;92.40;;;;;;5116966;28;19961;-45
2023/06/06 10:35:32;;;;;;;;;;;22.10;92.40;;;;;;5087066;28;20274;-50
2023/06/06 10:38:02;;;;;;;;;;;22.10;92.40;;;;;;5095827;28;19916;-46
2023/06/06 10:40:27;;;;;;;;;;;22.10;92.40;;;;;;5096833;28;19911;-45
2023/06/06 10:42:53;;;;;;;;;;;22.10;92.40;;;;;;5095608;28;19913;-48
2023/06/06 10:45:38;;;;;;;;;;;22.10;92.40;;;;;;5094976;28;19912;-51
2023/06/06 10:48:04;;;;;;;;;;;22.10;92.40;;;;;;5097049;28;19936;-45
2023/06/06 10:50:30;;;;;;;;;;;22.10;92.50;;;;;;5077743;28;19915;-45
2023/06/06 10:52:59;;;;;;;;;;;22.10;92.50;;;;;;5077384;28;19913;-47
2023/06/06 10:55:25;;;;;;;;;;;22.10;92.70;;;;;;5096799;28;20347;-48
2023/06/06 10:57:50;;;;;;;;;;;22.10;92.40;;;;;;5095915;28;20037;-44
2023/06/06 11:00:16;;;;;;;;;;;22.10;92.40;;;;;;5077487;28;19915;-47
2023/06/06 11:02:44;;;;;;;;;;;22.10;92.50;;;;;;5085753;28;20064;-46
2023/06/06 11:05:10;;;;;;;;;;;22.10;92.50;;;;;;5105396;28;20270;-48
2023/06/06 11:07:36;;;;;;;;;;;22.10;92.50;;;;;;5103702;28;19916;-47
2023/06/06 11:10:02;;;;;;;;;;;22.10;92.50;;;;;;5096546;28;19904;-48
2023/06/06 11:12:28;;;;;;;;;;;22.10;92.50;;;;;;5095370;28;19912;-45
2023/06/06 11:14:57;;;;;;;;;;;22.10;92.50;;;;;;5075558;28;19969;-46
2023/06/06 11:17:32;;;;;;;;;;;22.00;92.70;;;;;;5096131;28;20351;-46
2023/06/06 11:19:59;;;;;;;;;;;22.10;92.50;;;;;;5077910;28;19916;-45
2023/06/06 11:22:25;;;;;;;;;;;22.10;92.50;;;;;;5090442;28;20320;-46
2023/06/06 11:24:51;;;;;;;;;;;22.00;92.50;;;;;;5104196;28;20007;-46
2023/06/06 11:27:17;;;;;;;;;;;22.00;92.50;;;;;;5102375;28;19962;-45
2023/06/06 11:29:43;;;;;;;;;;;22.10;92.50;;;;;;5086980;28;19947;-46
2023/06/06 11:32:12;;;;;;;;;;;22.00;92.50;;;;;;5100084;28;20275;-42
2023/06/06 11:34:38;;;;;;;;;;;22.00;92.50;;;;;;5105357;28;19916;-43
2023/06/06 11:37:04;;;;;;;;;;;22.10;92.50;;;;;;5094654;28;19931;-47
2023/06/06 11:39:30;;;;;;;;;;;22.10;92.50;;;;;;5094165;28;19908;-44
2023/06/06 11:41:56;;;;;;;;;;;22.00;92.50;;;;;;5095778;28;19905;-45
2023/06/06 11:44:29;;;;;;;;;;;22.00;92.50;;;;;;5095271;28;19911;-45
2023/06/06 11:46:55;;;;;;;;;;;22.00;92.40;;;;;;5093672;28;19974;-49
2023/06/06 11:49:21;;;;;;;;;;;22.00;92.40;;;;;;5096806;28;19919;-48
2023/06/06 11:51:54;;;;;;;;;;;22.00;92.40;;;;;;5094293;28;19912;-47
2023/06/06 11:54:20;;;;;;;;;;;22.10;92.50;;;;;;5095572;28;19908;-45
2023/06/06 11:56:46;;;;;;;;;;;22.10;92.50;;;;;;5094494;28;20356;-44
2023/06/06 11:59:12;;;;;;;;;;;22.00;92.40;;;;;;5094455;28;20386;-45
2023/06/06 12:01:46;;;;;;;;;;;22.10;92.50;;;;;;5092565;28;19919;-45
2023/06/06 12:04:11;;;;;;;;;;;22.00;92.40;;;;;;5095350;28;19920;-44
2023/06/06 12:06:43;;;;;;;;;;;22.10;92.40;;;;;;5096981;28;20025;-44
2023/06/06 12:09:12;;;;;;;;;;;22.00;92.40;;;;;;5077032;28;19916;-45
2023/06/06 12:11:48;;;;;;;;;;;22.00;92.40;;;;;;5075020;28;19916;-49
2023/06/06 12:14:13;;;;;;;;;;;22.00;92.40;;;;;;5100603;28;19908;-44
2023/06/06 12:16:39;;;;;;;;;;;22.00;92.30;;;;;;5106671;28;20309;-45
2023/06/06 12:19:10;;;;;;;;;;;22.00;92.30;;;;;;5094745;28;19904;-44
2023/06/06 12:21:46;;;;;;;;;;;22.10;92.40;;;;;;5092237;28;19916;-44
2023/06/06 12:24:14;;;;;;;;;;;22.00;92.40;;;;;;5074675;28;19904;-46
2023/06/06 12:26:50;;;;;;;;;;;22.00;92.40;;;;;;5088871;28;19951;-46
2023/06/06 12:29:18;;;;;;;;;;;22.10;92.40;;;;;;5073713;28;19936;-46
2023/06/06 12:31:45;;;;;;;;;;;22.00;92.40;;;;;;5091628;28;19908;-46
2023/06/06 12:34:13;;;;;;;;;;;22.10;92.40;;;;;;5094551;28;19904;-45
2023/06/06 12:36:38;;;;;;;;;;;22.10;92.40;;;;;;5111070;28;19915;-50
2023/06/06 12:39:04;;;;;;;;;;;22.10;92.40;;;;;;5100986;28;20453;-45
2023/06/06 12:41:36;;;;;;;;;;;22.10;92.50;;;;;;5094765;28;19904;-46
2023/06/06 12:44:06;;;;;;;;;;;22.10;92.50;;;;;;5091438;28;19908;-50
2023/06/06 12:46:32;;;;;;;;;;;22.10;92.50;;;;;;5110910;28;19927;-47
2023/06/06 12:49:00;;;;;;;;;;;22.10;92.50;;;;;;5114119;28;20674;-45
2023/06/06 12:51:25;;;;;;;;;;;22.10;92.50;;;;;;5114971;28;20403;-46
2023/06/06 12:53:50;;;;;;;;;;;22.10;92.50;;;;;;5095552;28;19998;-45
2023/06/06 12:56:16;;;;;;;;;;;22.10;92.50;;;;;;5095267;28;19930;-50
2023/06/06 12:58:43;;;;;;;;;;;22.10;92.60;;;;;;5114524;28;19908;-47
2023/06/06 13:01:08;;;;;;;;;;;22.10;92.60;;;;;;5104037;28;19916;-47
2023/06/06 13:03:34;;;;;;;;;;;22.10;92.60;;;;;;5091658;28;20228;-45
2023/06/06 13:05:59;;;;;;;;;;;22.10;92.60;;;;;;5091026;28;19923;-44
2023/06/06 13:08:25;;;;;;;;;;;22.10;92.60;;;;;;5096144;28;20289;-44
2023/06/06 13:10:50;;;;;;;;;;;22.10;92.60;;;;;;5114495;28;19903;-42
2023/06/06 13:13:16;;;;;;;;;;;22.10;92.60;;;;;;5109937;28;19904;-44
2023/06/06 13:15:41;;;;;;;;;;;22.10;92.60;;;;;;5092171;28;19990;-46
2023/06/06 13:18:07;;;;;;;;;;;22.10;92.60;;;;;;5091632;28;19931;-45
2023/06/06 13:20:32;;;;;;;;;;;22.20;92.60;;;;;;5092809;28;19908;-46
2023/06/06 13:22:58;;;;;;;;;;;22.20;92.60;;;;;;5097198;28;19928;-44
2023/06/06 13:25:23;;;;;;;;;;;22.20;92.60;;;;;;5091483;28;20363;-45
2023/06/06 13:27:49;;;;;;;;;;;22.20;92.50;;;;;;5090076;28;19916;-51
2023/06/06 13:30:14;;;;;;;;;;;22.30;92.60;;;;;;5081659;28;20292;-48
2023/06/06 13:32:40;;;;;;;;;;;22.20;92.50;;;;;;5111685;28;20010;-45
2023/06/06 13:35:06;;;;;;;;;;;22.20;92.50;;;;;;5102950;28;19909;-44
2023/06/06 13:37:31;;;;;;;;;;;22.20;92.60;;;;;;5092807;28;19908;-45
2023/06/06 13:39:57;;;;;;;;;;;22.20;92.60;;;;;;5093619;28;19904;-45
2023/06/06 13:42:22;;;;;;;;;;;22.20;92.60;;;;;;5091800;28;19908;-43
2023/06/06 13:44:47;;;;;;;;;;;22.20;92.60;;;;;;5102422;28;20002;-46
2023/06/06 13:47:13;;;;;;;;;;;22.20;92.60;;;;;;5114086;28;20308;-47
2023/06/06 13:49:39;;;;;;;;;;;22.20;92.60;;;;;;5114140;28;19954;-44
2023/06/06 13:52:09;;;;;;;;;;;22.20;92.60;;;;;;5092984;28;19904;-44
2023/06/06 13:54:35;;;;;;;;;;;22.20;92.60;;;;;;5073562;28;19915;-49
2023/06/06 13:57:02;;;;;;;;;;;22.20;92.60;;;;;;5073601;28;20247;-45
2023/06/06 13:59:28;;;;;;;;;;;22.20;92.70;;;;;;5092881;28;19912;-43
2023/06/06 14:01:55;;;;;;;;;;;22.20;92.70;;;;;;5091407;28;19913;-43
2023/06/06 14:04:21;;;;;;;;;;;22.20;92.70;;;;;;5091407;28;19927;-44
2023/06/06 14:06:47;;;;;;;;;;;22.20;92.70;;;;;;5085278;28;19904;-43
2023/06/06 14:09:14;;;;;;;;;;;22.20;92.70;;;;;;5087636;28;19919;-48
2023/06/06 14:11:40;;;;;;;;;;;22.20;92.70;;;;;;5092465;28;19966;-46
2023/06/06 14:14:06;;;;;;;;;;;22.20;92.70;;;;;;5091718;28;19908;-44